sensor_id;sensor_type;location;lat;lon;timestamp;P1;durP1;ratioP1;P2;durP2;ratioP2
5730;SDS011;2890;51.950;7.668;2022-10-22T00:00:25;9.25;;;6.20;;
5730;SDS011;2890;51.950;7.668;2022-10-22T00:02:53;12.67;;;7.00;;
5730;SDS011;2890;51.950;7.668;2022-10-22T00:05:21;8.73;;;6.20;;
5730;SDS011;2890;51.950;7.668;2022-10-22T00:07:48;6.73;;;6.03;;
5730;SDS011;2890;51.950;7.668;2022-10-22T00:10:15;7.17;;;5.27;;
5730;SDS011;2890;51.950;7.668;2022-10-22T00:12:43;8.07;;;6.03;;
5730;SDS011;2890;51.950;7.668;2022-10-22T00:15:10;8.60;;;6.10;;
5730;SDS011;2890;51.950;7.668;2022-10-22T00:17:37;9.53;;;5.83;;
5730;SDS011;2890;51.950;7.668;2022-10-22T00:20:06;8.50;;;5.72;;
5730;SDS011;2890;51.950;7.668;2022-10-22T00:22:34;11.60;;;5.40;;
5730;SDS011;2890;51.950;7.668;2022-10-22T00:25:01;7.67;;;5.80;;
5730;SDS011;2890;51.950;7.668;2022-10-22T00:27:28;6.30;;;5.33;;
5730;SDS011;2890;51.950;7.668;2022-10-22T00:29:55;7.37;;;5.40;;
5730;SDS011;2890;51.950;7.668;2022-10-22T00:32:22;6.90;;;5.50;;
5730;SDS011;2890;51.950;7.668;2022-10-22T00:34:49;6.33;;;5.10;;
5730;SDS011;2890;51.950;7.668;2022-10-22T00:37:18;7.63;;;5.43;;
5730;SDS011;2890;51.950;7.668;2022-10-22T00:39:45;7.30;;;5.53;;
5730;SDS011;2890;51.950;7.668;2022-10-22T00:42:12;8.67;;;5.43;;
5730;SDS011;2890;51.950;7.668;2022-10-22T00:47:31;8.88;;;5.00;;
5730;SDS011;2890;51.950;7.668;2022-10-22T00:49:59;8.33;;;5.30;;
5730;SDS011;2890;51.950;7.668;2022-10-22T00:52:27;9.53;;;5.00;;
5730;SDS011;2890;51.950;7.668;2022-10-22T00:54:55;7.77;;;4.90;;
5730;SDS011;2890;51.950;7.668;2022-10-22T00:57:23;7.30;;;5.07;;
5730;SDS011;2890;51.950;7.668;2022-10-22T00:59:50;6.93;;;4.68;;
5730;SDS011;2890;51.950;7.668;2022-10-22T01:02:17;12.57;;;5.28;;
5730;SDS011;2890;51.950;7.668;2022-10-22T01:04:44;10.57;;;5.85;;
5730;SDS011;2890;51.950;7.668;2022-10-22T01:07:14;6.85;;;4.78;;
5730;SDS011;2890;51.950;7.668;2022-10-22T01:09:45;9.00;;;5.10;;
5730;SDS011;2890;51.950;7.668;2022-10-22T01:12:14;6.43;;;5.03;;
5730;SDS011;2890;51.950;7.668;2022-10-22T01:14:45;13.75;;;5.32;;
5730;SDS011;2890;51.950;7.668;2022-10-22T01:17:15;6.77;;;4.97;;
5730;SDS011;2890;51.950;7.668;2022-10-22T01:22:30;8.83;;;5.37;;
5730;SDS011;2890;51.950;7.668;2022-10-22T01:25:01;9.00;;;5.47;;
5730;SDS011;2890;51.950;7.668;2022-10-22T01:27:34;9.27;;;5.30;;
5730;SDS011;2890;51.950;7.668;2022-10-22T01:30:05;7.97;;;5.57;;
5730;SDS011;2890;51.950;7.668;2022-10-22T01:32:34;8.63;;;5.97;;
5730;SDS011;2890;51.950;7.668;2022-10-22T01:35:04;8.70;;;5.70;;
5730;SDS011;2890;51.950;7.668;2022-10-22T01:37:33;10.03;;;6.00;;
5730;SDS011;2890;51.950;7.668;2022-10-22T01:40:02;7.07;;;6.23;;
5730;SDS011;2890;51.950;7.668;2022-10-22T01:42:31;9.97;;;5.70;;
5730;SDS011;2890;51.950;7.668;2022-10-22T01:44:58;7.83;;;6.37;;
5730;SDS011;2890;51.950;7.668;2022-10-22T01:47:30;6.80;;;5.50;;
5730;SDS011;2890;51.950;7.668;2022-10-22T01:50:23;10.23;;;5.97;;
5730;SDS011;2890;51.950;7.668;2022-10-22T01:53:00;8.63;;;6.80;;
5730;SDS011;2890;51.950;7.668;2022-10-22T01:55:31;10.33;;;6.17;;
5730;SDS011;2890;51.950;7.668;2022-10-22T01:58:02;11.87;;;6.53;;
5730;SDS011;2890;51.950;7.668;2022-10-22T02:00:32;14.60;;;6.43;;
5730;SDS011;2890;51.950;7.668;2022-10-22T02:03:04;9.15;;;7.07;;
5730;SDS011;2890;51.950;7.668;2022-10-22T02:05:35;7.27;;;5.90;;
5730;SDS011;2890;51.950;7.668;2022-10-22T02:08:04;9.87;;;6.40;;
5730;SDS011;2890;51.950;7.668;2022-10-22T02:10:32;11.00;;;6.97;;
5730;SDS011;2890;51.950;7.668;2022-10-22T02:12:59;10.80;;;6.60;;
5730;SDS011;2890;51.950;7.668;2022-10-22T02:15:27;11.50;;;6.47;;
5730;SDS011;2890;51.950;7.668;2022-10-22T02:17:55;10.03;;;6.37;;
5730;SDS011;2890;51.950;7.668;2022-10-22T02:20:26;8.27;;;6.80;;
5730;SDS011;2890;51.950;7.668;2022-10-22T02:22:54;12.60;;;9.23;;
5730;SDS011;2890;51.950;7.668;2022-10-22T02:25:21;10.23;;;7.07;;
5730;SDS011;2890;51.950;7.668;2022-10-22T02:27:50;8.70;;;6.60;;
5730;SDS011;2890;51.950;7.668;2022-10-22T02:30:20;9.93;;;8.17;;
5730;SDS011;2890;51.950;7.668;2022-10-22T02:32:49;8.20;;;7.23;;
5730;SDS011;2890;51.950;7.668;2022-10-22T02:35:19;9.47;;;7.17;;
5730;SDS011;2890;51.950;7.668;2022-10-22T02:37:48;10.63;;;6.90;;
5730;SDS011;2890;51.950;7.668;2022-10-22T02:40:16;9.53;;;7.67;;
5730;SDS011;2890;51.950;7.668;2022-10-22T02:42:45;10.37;;;6.63;;
5730;SDS011;2890;51.950;7.668;2022-10-22T02:45:12;7.93;;;6.27;;
5730;SDS011;2890;51.950;7.668;2022-10-22T02:47:39;9.57;;;6.67;;
5730;SDS011;2890;51.950;7.668;2022-10-22T02:50:07;9.83;;;7.10;;
5730;SDS011;2890;51.950;7.668;2022-10-22T02:52:34;10.50;;;6.90;;
5730;SDS011;2890;51.950;7.668;2022-10-22T02:55:03;10.07;;;6.40;;
5730;SDS011;2890;51.950;7.668;2022-10-22T02:57:30;11.83;;;7.40;;
5730;SDS011;2890;51.950;7.668;2022-10-22T02:59:57;10.47;;;7.70;;
5730;SDS011;2890;51.950;7.668;2022-10-22T03:02:25;9.63;;;7.22;;
5730;SDS011;2890;51.950;7.668;2022-10-22T03:04:52;9.13;;;7.43;;
5730;SDS011;2890;51.950;7.668;2022-10-22T03:07:19;9.30;;;6.70;;
5730;SDS011;2890;51.950;7.668;2022-10-22T03:09:46;8.63;;;7.30;;
5730;SDS011;2890;51.950;7.668;2022-10-22T03:12:14;9.00;;;7.25;;
5730;SDS011;2890;51.950;7.668;2022-10-22T03:14:42;8.10;;;6.90;;
5730;SDS011;2890;51.950;7.668;2022-10-22T03:17:09;8.93;;;7.30;;
5730;SDS011;2890;51.950;7.668;2022-10-22T03:19:36;8.63;;;6.97;;
5730;SDS011;2890;51.950;7.668;2022-10-22T03:22:04;9.87;;;7.37;;
5730;SDS011;2890;51.950;7.668;2022-10-22T03:24:33;7.35;;;6.65;;
5730;SDS011;2890;51.950;7.668;2022-10-22T03:27:01;11.63;;;6.97;;
5730;SDS011;2890;51.950;7.668;2022-10-22T03:29:30;8.07;;;6.67;;
5730;SDS011;2890;51.950;7.668;2022-10-22T03:31:58;9.50;;;7.07;;
5730;SDS011;2890;51.950;7.668;2022-10-22T03:34:25;9.90;;;7.53;;
5730;SDS011;2890;51.950;7.668;2022-10-22T03:36:52;10.93;;;7.00;;
5730;SDS011;2890;51.950;7.668;2022-10-22T03:39:20;12.53;;;7.20;;
5730;SDS011;2890;51.950;7.668;2022-10-22T03:41:48;8.10;;;6.40;;
5730;SDS011;2890;51.950;7.668;2022-10-22T03:44:16;8.33;;;6.33;;
5730;SDS011;2890;51.950;7.668;2022-10-22T03:46:45;11.03;;;7.17;;
5730;SDS011;2890;51.950;7.668;2022-10-22T03:49:12;10.33;;;7.00;;
5730;SDS011;2890;51.950;7.668;2022-10-22T03:51:39;10.00;;;7.53;;
5730;SDS011;2890;51.950;7.668;2022-10-22T03:54:06;8.47;;;6.57;;
5730;SDS011;2890;51.950;7.668;2022-10-22T03:56:33;7.93;;;6.70;;
5730;SDS011;2890;51.950;7.668;2022-10-22T03:59:00;9.20;;;6.63;;
5730;SDS011;2890;51.950;7.668;2022-10-22T04:01:28;7.40;;;6.67;;
5730;SDS011;2890;51.950;7.668;2022-10-22T04:03:57;9.53;;;6.63;;
5730;SDS011;2890;51.950;7.668;2022-10-22T04:06:24;7.67;;;6.10;;
5730;SDS011;2890;51.950;7.668;2022-10-22T04:08:51;9.30;;;6.53;;
5730;SDS011;2890;51.950;7.668;2022-10-22T04:11:18;8.07;;;5.80;;
5730;SDS011;2890;51.950;7.668;2022-10-22T04:13:45;6.77;;;5.90;;
5730;SDS011;2890;51.950;7.668;2022-10-22T04:16:13;9.57;;;6.53;;
5730;SDS011;2890;51.950;7.668;2022-10-22T04:18:41;7.23;;;6.17;;
5730;SDS011;2890;51.950;7.668;2022-10-22T04:21:10;9.40;;;6.33;;
5730;SDS011;2890;51.950;7.668;2022-10-22T04:23:37;8.87;;;6.73;;
5730;SDS011;2890;51.950;7.668;2022-10-22T04:26:05;7.33;;;6.23;;
5730;SDS011;2890;51.950;7.668;2022-10-22T04:28:32;8.70;;;6.60;;
5730;SDS011;2890;51.950;7.668;2022-10-22T04:31:00;8.27;;;6.27;;
5730;SDS011;2890;51.950;7.668;2022-10-22T04:33:32;8.53;;;5.93;;
5730;SDS011;2890;51.950;7.668;2022-10-22T04:35:59;8.23;;;7.30;;
5730;SDS011;2890;51.950;7.668;2022-10-22T04:38:32;12.17;;;6.53;;
5730;SDS011;2890;51.950;7.668;2022-10-22T04:41:06;8.30;;;6.83;;
5730;SDS011;2890;51.950;7.668;2022-10-22T04:43:34;8.57;;;6.50;;
5730;SDS011;2890;51.950;7.668;2022-10-22T04:46:01;8.77;;;6.67;;
5730;SDS011;2890;51.950;7.668;2022-10-22T04:48:28;10.43;;;6.70;;
5730;SDS011;2890;51.950;7.668;2022-10-22T04:50:55;11.27;;;6.70;;
5730;SDS011;2890;51.950;7.668;2022-10-22T04:53:22;9.17;;;6.57;;
5730;SDS011;2890;51.950;7.668;2022-10-22T04:55:51;7.90;;;6.53;;
5730;SDS011;2890;51.950;7.668;2022-10-22T04:58:18;9.90;;;7.30;;
5730;SDS011;2890;51.950;7.668;2022-10-22T05:00:45;12.43;;;6.73;;
5730;SDS011;2890;51.950;7.668;2022-10-22T05:03:12;7.57;;;6.47;;
5730;SDS011;2890;51.950;7.668;2022-10-22T05:05:39;6.63;;;5.90;;
5730;SDS011;2890;51.950;7.668;2022-10-22T05:08:06;10.73;;;6.60;;
5730;SDS011;2890;51.950;7.668;2022-10-22T05:10:33;13.97;;;6.67;;
5730;SDS011;2890;51.950;7.668;2022-10-22T05:13:02;13.13;;;6.63;;
5730;SDS011;2890;51.950;7.668;2022-10-22T05:15:29;8.17;;;6.40;;
5730;SDS011;2890;51.950;7.668;2022-10-22T05:17:56;7.80;;;6.20;;
5730;SDS011;2890;51.950;7.668;2022-10-22T05:20:23;8.80;;;6.23;;
5730;SDS011;2890;51.950;7.668;2022-10-22T05:22:50;9.90;;;8.00;;
5730;SDS011;2890;51.950;7.668;2022-10-22T05:25:17;11.67;;;7.33;;
5730;SDS011;2890;51.950;7.668;2022-10-22T05:27:47;8.30;;;6.47;;
5730;SDS011;2890;51.950;7.668;2022-10-22T05:30:16;11.83;;;6.30;;
5730;SDS011;2890;51.950;7.668;2022-10-22T05:32:43;9.02;;;6.72;;
5730;SDS011;2890;51.950;7.668;2022-10-22T05:35:10;10.90;;;6.50;;
5730;SDS011;2890;51.950;7.668;2022-10-22T05:37:37;10.23;;;6.90;;
5730;SDS011;2890;51.950;7.668;2022-10-22T05:40:05;8.30;;;6.53;;
5730;SDS011;2890;51.950;7.668;2022-10-22T05:42:32;8.07;;;6.67;;
5730;SDS011;2890;51.950;7.668;2022-10-22T05:44:59;10.40;;;6.27;;
5730;SDS011;2890;51.950;7.668;2022-10-22T05:47:29;11.63;;;6.90;;
5730;SDS011;2890;51.950;7.668;2022-10-22T05:49:56;12.00;;;7.40;;
5730;SDS011;2890;51.950;7.668;2022-10-22T05:52:23;11.27;;;6.60;;
5730;SDS011;2890;51.950;7.668;2022-10-22T05:54:50;10.73;;;7.37;;
5730;SDS011;2890;51.950;7.668;2022-10-22T05:57:17;9.90;;;7.30;;
5730;SDS011;2890;51.950;7.668;2022-10-22T05:59:44;8.23;;;6.83;;
5730;SDS011;2890;51.950;7.668;2022-10-22T06:02:11;9.10;;;6.87;;
5730;SDS011;2890;51.950;7.668;2022-10-22T06:04:40;10.95;;;6.65;;
5730;SDS011;2890;51.950;7.668;2022-10-22T06:07:07;12.00;;;6.63;;
5730;SDS011;2890;51.950;7.668;2022-10-22T06:09:36;11.03;;;6.70;;
5730;SDS011;2890;51.950;7.668;2022-10-22T06:12:05;9.27;;;6.67;;
5730;SDS011;2890;51.950;7.668;2022-10-22T06:14:34;11.63;;;7.43;;
5730;SDS011;2890;51.950;7.668;2022-10-22T06:17:01;11.23;;;6.40;;
5730;SDS011;2890;51.950;7.668;2022-10-22T06:19:29;7.70;;;6.77;;
5730;SDS011;2890;51.950;7.668;2022-10-22T06:21:57;13.53;;;7.87;;
5730;SDS011;2890;51.950;7.668;2022-10-22T06:24:24;12.90;;;7.73;;
5730;SDS011;2890;51.950;7.668;2022-10-22T06:26:51;11.17;;;6.90;;
5730;SDS011;2890;51.950;7.668;2022-10-22T06:29:18;8.07;;;7.13;;
5730;SDS011;2890;51.950;7.668;2022-10-22T06:31:46;11.33;;;6.50;;
5730;SDS011;2890;51.950;7.668;2022-10-22T06:34:13;13.00;;;7.20;;
5730;SDS011;2890;51.950;7.668;2022-10-22T06:36:43;11.47;;;7.27;;
5730;SDS011;2890;51.950;7.668;2022-10-22T06:39:12;9.43;;;7.40;;
5730;SDS011;2890;51.950;7.668;2022-10-22T06:41:39;13.50;;;7.87;;
5730;SDS011;2890;51.950;7.668;2022-10-22T06:44:07;30.90;;;10.03;;
5730;SDS011;2890;51.950;7.668;2022-10-22T06:46:39;10.70;;;8.07;;
5730;SDS011;2890;51.950;7.668;2022-10-22T06:49:06;9.47;;;7.33;;
5730;SDS011;2890;51.950;7.668;2022-10-22T06:51:33;11.53;;;7.90;;
5730;SDS011;2890;51.950;7.668;2022-10-22T06:54:00;7.97;;;7.03;;
5730;SDS011;2890;51.950;7.668;2022-10-22T06:56:28;10.20;;;7.80;;
5730;SDS011;2890;51.950;7.668;2022-10-22T06:58:56;12.53;;;7.40;;
5730;SDS011;2890;51.950;7.668;2022-10-22T07:01:24;10.00;;;6.97;;
5730;SDS011;2890;51.950;7.668;2022-10-22T07:03:52;11.47;;;6.90;;
5730;SDS011;2890;51.950;7.668;2022-10-22T07:06:19;11.63;;;7.67;;
5730;SDS011;2890;51.950;7.668;2022-10-22T07:08:46;14.05;;;7.18;;
5730;SDS011;2890;51.950;7.668;2022-10-22T07:11:15;11.20;;;8.20;;
5730;SDS011;2890;51.950;7.668;2022-10-22T07:13:44;14.77;;;9.67;;
5730;SDS011;2890;51.950;7.668;2022-10-22T07:16:11;12.13;;;8.40;;
5730;SDS011;2890;51.950;7.668;2022-10-22T07:18:39;20.65;;;9.32;;
5730;SDS011;2890;51.950;7.668;2022-10-22T07:21:06;10.67;;;8.20;;
5730;SDS011;2890;51.950;7.668;2022-10-22T07:23:34;10.07;;;7.60;;
5730;SDS011;2890;51.950;7.668;2022-10-22T07:26:01;8.38;;;6.85;;
5730;SDS011;2890;51.950;7.668;2022-10-22T07:28:30;13.30;;;6.85;;
5730;SDS011;2890;51.950;7.668;2022-10-22T07:30:59;8.88;;;6.00;;
5730;SDS011;2890;51.950;7.668;2022-10-22T07:33:26;9.48;;;5.65;;
5730;SDS011;2890;51.950;7.668;2022-10-22T07:35:56;8.18;;;5.03;;
5730;SDS011;2890;51.950;7.668;2022-10-22T07:38:24;8.45;;;4.28;;
5730;SDS011;2890;51.950;7.668;2022-10-22T07:40:51;6.47;;;4.03;;
5730;SDS011;2890;51.950;7.668;2022-10-22T07:43:19;7.07;;;4.32;;
5730;SDS011;2890;51.950;7.668;2022-10-22T07:45:46;12.73;;;5.35;;
5730;SDS011;2890;51.950;7.668;2022-10-22T07:48:15;5.88;;;4.30;;
5730;SDS011;2890;51.950;7.668;2022-10-22T07:50:42;5.43;;;4.15;;
5730;SDS011;2890;51.950;7.668;2022-10-22T07:53:09;6.90;;;4.20;;
5730;SDS011;2890;51.950;7.668;2022-10-22T07:55:36;7.38;;;4.35;;
5730;SDS011;2890;51.950;7.668;2022-10-22T07:58:03;7.25;;;3.63;;
5730;SDS011;2890;51.950;7.668;2022-10-22T08:00:30;11.80;;;3.90;;
5730;SDS011;2890;51.950;7.668;2022-10-22T08:02:57;8.60;;;4.15;;
5730;SDS011;2890;51.950;7.668;2022-10-22T08:05:25;5.60;;;3.72;;
5730;SDS011;2890;51.950;7.668;2022-10-22T08:07:52;8.30;;;3.78;;
5730;SDS011;2890;51.950;7.668;2022-10-22T08:10:19;5.25;;;3.97;;
5730;SDS011;2890;51.950;7.668;2022-10-22T08:12:47;7.70;;;4.47;;
5730;SDS011;2890;51.950;7.668;2022-10-22T08:15:14;7.22;;;3.67;;
5730;SDS011;2890;51.950;7.668;2022-10-22T08:17:41;7.28;;;4.35;;
5730;SDS011;2890;51.950;7.668;2022-10-22T08:20:08;4.75;;;3.90;;
5730;SDS011;2890;51.950;7.668;2022-10-22T08:22:37;4.47;;;3.60;;
5730;SDS011;2890;51.950;7.668;2022-10-22T08:25:04;11.40;;;4.53;;
5730;SDS011;2890;51.950;7.668;2022-10-22T08:27:31;7.72;;;4.15;;
5730;SDS011;2890;51.950;7.668;2022-10-22T08:29:58;7.15;;;3.63;;
5730;SDS011;2890;51.950;7.668;2022-10-22T08:32:26;7.10;;;3.50;;
5730;SDS011;2890;51.950;7.668;2022-10-22T08:34:53;6.55;;;3.30;;
5730;SDS011;2890;51.950;7.668;2022-10-22T08:37:20;5.25;;;3.13;;
5730;SDS011;2890;51.950;7.668;2022-10-22T08:39:48;4.70;;;2.80;;
5730;SDS011;2890;51.950;7.668;2022-10-22T08:42:25;8.10;;;2.88;;
5730;SDS011;2890;51.950;7.668;2022-10-22T08:44:59;4.57;;;3.08;;
5730;SDS011;2890;51.950;7.668;2022-10-22T08:47:36;6.97;;;3.45;;
5730;SDS011;2890;51.950;7.668;2022-10-22T08:50:08;7.10;;;2.88;;
5730;SDS011;2890;51.950;7.668;2022-10-22T08:52:36;4.57;;;2.95;;
5730;SDS011;2890;51.950;7.668;2022-10-22T08:55:11;5.13;;;2.70;;
5730;SDS011;2890;51.950;7.668;2022-10-22T08:57:44;4.18;;;2.78;;
5730;SDS011;2890;51.950;7.668;2022-10-22T09:00:13;6.88;;;2.95;;
5730;SDS011;2890;51.950;7.668;2022-10-22T09:02:44;5.53;;;2.70;;
5730;SDS011;2890;51.950;7.668;2022-10-22T09:05:16;8.45;;;3.10;;
5730;SDS011;2890;51.950;7.668;2022-10-22T09:07:45;8.45;;;3.20;;
5730;SDS011;2890;51.950;7.668;2022-10-22T09:10:16;10.80;;;3.13;;
5730;SDS011;2890;51.950;7.668;2022-10-22T09:12:44;6.75;;;2.60;;
5730;SDS011;2890;51.950;7.668;2022-10-22T09:15:12;8.15;;;2.70;;
5730;SDS011;2890;51.950;7.668;2022-10-22T09:17:40;7.30;;;2.72;;
5730;SDS011;2890;51.950;7.668;2022-10-22T09:20:12;8.30;;;2.53;;
5730;SDS011;2890;51.950;7.668;2022-10-22T09:22:42;5.20;;;2.45;;
5730;SDS011;2890;51.950;7.668;2022-10-22T09:25:22;3.90;;;2.17;;
5730;SDS011;2890;51.950;7.668;2022-10-22T09:27:51;5.05;;;2.78;;
5730;SDS011;2890;51.950;7.668;2022-10-22T09:30:23;4.18;;;2.88;;
5730;SDS011;2890;51.950;7.668;2022-10-22T09:32:51;3.78;;;2.55;;
5730;SDS011;2890;51.950;7.668;2022-10-22T09:35:21;3.92;;;2.15;;
5730;SDS011;2890;51.950;7.668;2022-10-22T09:37:49;5.57;;;2.15;;
5730;SDS011;2890;51.950;7.668;2022-10-22T09:40:17;5.90;;;2.58;;
5730;SDS011;2890;51.950;7.668;2022-10-22T09:42:45;7.43;;;2.55;;
5730;SDS011;2890;51.950;7.668;2022-10-22T09:45:17;6.40;;;2.55;;
5730;SDS011;2890;51.950;7.668;2022-10-22T09:47:45;6.13;;;2.47;;
5730;SDS011;2890;51.950;7.668;2022-10-22T09:50:24;5.35;;;3.05;;
5730;SDS011;2890;51.950;7.668;2022-10-22T09:52:59;6.18;;;2.35;;
5730;SDS011;2890;51.950;7.668;2022-10-22T09:55:26;5.07;;;2.50;;
5730;SDS011;2890;51.950;7.668;2022-10-22T09:57:56;8.15;;;2.80;;
5730;SDS011;2890;51.950;7.668;2022-10-22T10:00:24;10.55;;;2.72;;
5730;SDS011;2890;51.950;7.668;2022-10-22T10:02:54;5.45;;;2.30;;
5730;SDS011;2890;51.950;7.668;2022-10-22T10:05:24;6.07;;;2.30;;
5730;SDS011;2890;51.950;7.668;2022-10-22T10:07:51;7.07;;;3.20;;
5730;SDS011;2890;51.950;7.668;2022-10-22T10:10:20;6.80;;;3.20;;
5730;SDS011;2890;51.950;7.668;2022-10-22T10:12:52;4.40;;;2.85;;
5730;SDS011;2890;51.950;7.668;2022-10-22T10:15:23;6.30;;;2.60;;
5730;SDS011;2890;51.950;7.668;2022-10-22T10:17:56;5.30;;;2.70;;
5730;SDS011;2890;51.950;7.668;2022-10-22T10:20:28;7.82;;;3.17;;
5730;SDS011;2890;51.950;7.668;2022-10-22T10:22:58;6.72;;;2.90;;
5730;SDS011;2890;51.950;7.668;2022-10-22T10:25:34;7.40;;;2.92;;
5730;SDS011;2890;51.950;7.668;2022-10-22T10:28:13;6.72;;;3.15;;
5730;SDS011;2890;51.950;7.668;2022-10-22T10:30:45;8.00;;;3.17;;
5730;SDS011;2890;51.950;7.668;2022-10-22T10:33:19;5.68;;;2.60;;
5730;SDS011;2890;51.950;7.668;2022-10-22T10:35:48;6.10;;;3.03;;
5730;SDS011;2890;51.950;7.668;2022-10-22T10:38:27;6.95;;;2.22;;
5730;SDS011;2890;51.950;7.668;2022-10-22T10:40:58;8.15;;;2.85;;
5730;SDS011;2890;51.950;7.668;2022-10-22T10:43:31;4.20;;;1.98;;
5730;SDS011;2890;51.950;7.668;2022-10-22T10:46:04;9.70;;;3.42;;
5730;SDS011;2890;51.950;7.668;2022-10-22T10:48:40;9.07;;;2.75;;
5730;SDS011;2890;51.950;7.668;2022-10-22T10:51:12;6.60;;;2.72;;
5730;SDS011;2890;51.950;7.668;2022-10-22T10:53:46;8.80;;;2.90;;
5730;SDS011;2890;51.950;7.668;2022-10-22T10:56:22;11.65;;;3.92;;
5730;SDS011;2890;51.950;7.668;2022-10-22T10:58:53;7.60;;;2.60;;
5730;SDS011;2890;51.950;7.668;2022-10-22T11:01:26;4.88;;;2.60;;
5730;SDS011;2890;51.950;7.668;2022-10-22T11:03:58;6.40;;;3.10;;
5730;SDS011;2890;51.950;7.668;2022-10-22T11:06:28;7.45;;;2.95;;
5730;SDS011;2890;51.950;7.668;2022-10-22T11:08:58;9.60;;;2.88;;
5730;SDS011;2890;51.950;7.668;2022-10-22T11:11:29;8.43;;;3.03;;
5730;SDS011;2890;51.950;7.668;2022-10-22T11:14:00;7.75;;;2.33;;
5730;SDS011;2890;51.950;7.668;2022-10-22T11:16:31;5.55;;;2.03;;
5730;SDS011;2890;51.950;7.668;2022-10-22T11:18:59;4.75;;;2.40;;
5730;SDS011;2890;51.950;7.668;2022-10-22T11:21:29;7.75;;;2.40;;
5730;SDS011;2890;51.950;7.668;2022-10-22T11:24:00;5.15;;;2.45;;
5730;SDS011;2890;51.950;7.668;2022-10-22T11:26:35;6.55;;;3.15;;
5730;SDS011;2890;51.950;7.668;2022-10-22T11:29:03;5.30;;;2.22;;
5730;SDS011;2890;51.950;7.668;2022-10-22T11:31:34;6.55;;;2.55;;
5730;SDS011;2890;51.950;7.668;2022-10-22T11:34:04;9.05;;;2.58;;
5730;SDS011;2890;51.950;7.668;2022-10-22T11:36:32;4.35;;;2.25;;
5730;SDS011;2890;51.950;7.668;2022-10-22T11:39:00;7.50;;;2.15;;
5730;SDS011;2890;51.950;7.668;2022-10-22T11:41:28;6.38;;;2.17;;
5730;SDS011;2890;51.950;7.668;2022-10-22T11:44:04;3.70;;;2.42;;
5730;SDS011;2890;51.950;7.668;2022-10-22T11:46:39;7.28;;;2.60;;
5730;SDS011;2890;51.950;7.668;2022-10-22T11:49:22;4.85;;;2.40;;
5730;SDS011;2890;51.950;7.668;2022-10-22T11:51:50;6.32;;;2.00;;
5730;SDS011;2890;51.950;7.668;2022-10-22T11:54:27;4.55;;;2.72;;
5730;SDS011;2890;51.950;7.668;2022-10-22T11:56:56;6.25;;;2.92;;
5730;SDS011;2890;51.950;7.668;2022-10-22T11:59:37;5.97;;;2.58;;
5730;SDS011;2890;51.950;7.668;2022-10-22T12:04:48;5.53;;;2.75;;
5730;SDS011;2890;51.950;7.668;2022-10-22T12:07:29;5.47;;;2.67;;
5730;SDS011;2890;51.950;7.668;2022-10-22T12:09:57;8.80;;;2.78;;
5730;SDS011;2890;51.950;7.668;2022-10-22T12:12:24;12.02;;;3.75;;
5730;SDS011;2890;51.950;7.668;2022-10-22T12:14:53;9.10;;;2.53;;
5730;SDS011;2890;51.950;7.668;2022-10-22T12:17:21;8.43;;;2.70;;
5730;SDS011;2890;51.950;7.668;2022-10-22T12:19:50;10.65;;;3.28;;
5730;SDS011;2890;51.950;7.668;2022-10-22T12:22:20;5.85;;;3.20;;
5730;SDS011;2890;51.950;7.668;2022-10-22T12:24:50;11.25;;;3.92;;
5730;SDS011;2890;51.950;7.668;2022-10-22T12:27:18;7.85;;;2.97;;
5730;SDS011;2890;51.950;7.668;2022-10-22T12:29:46;5.32;;;3.53;;
5730;SDS011;2890;51.950;7.668;2022-10-22T12:32:14;6.55;;;3.80;;
5730;SDS011;2890;51.950;7.668;2022-10-22T12:34:44;5.38;;;3.72;;
5730;SDS011;2890;51.950;7.668;2022-10-22T12:37:13;7.10;;;3.47;;
5730;SDS011;2890;51.950;7.668;2022-10-22T12:39:40;7.38;;;3.83;;
5730;SDS011;2890;51.950;7.668;2022-10-22T12:42:09;8.80;;;4.88;;
5730;SDS011;2890;51.950;7.668;2022-10-22T12:44:38;8.70;;;4.80;;
5730;SDS011;2890;51.950;7.668;2022-10-22T12:47:05;7.00;;;4.18;;
5730;SDS011;2890;51.950;7.668;2022-10-22T12:49:34;7.75;;;5.05;;
5730;SDS011;2890;51.950;7.668;2022-10-22T12:52:02;8.05;;;4.95;;
5730;SDS011;2890;51.950;7.668;2022-10-22T12:54:32;8.70;;;4.95;;
5730;SDS011;2890;51.950;7.668;2022-10-22T12:57:00;8.20;;;4.65;;
5730;SDS011;2890;51.950;7.668;2022-10-22T12:59:28;6.38;;;5.07;;
5730;SDS011;2890;51.950;7.668;2022-10-22T13:01:58;10.23;;;5.95;;
5730;SDS011;2890;51.950;7.668;2022-10-22T13:04:32;14.38;;;6.60;;
5730;SDS011;2890;51.950;7.668;2022-10-22T13:07:04;8.70;;;5.38;;
5730;SDS011;2890;51.950;7.668;2022-10-22T13:09:38;9.45;;;5.65;;
5730;SDS011;2890;51.950;7.668;2022-10-22T13:12:06;15.93;;;7.82;;
5730;SDS011;2890;51.950;7.668;2022-10-22T13:14:35;12.32;;;7.85;;
5730;SDS011;2890;51.950;7.668;2022-10-22T13:17:04;15.30;;;10.63;;
5730;SDS011;2890;51.950;7.668;2022-10-22T13:19:34;11.32;;;5.78;;
5730;SDS011;2890;51.950;7.668;2022-10-22T13:22:01;12.63;;;8.45;;
5730;SDS011;2890;51.950;7.668;2022-10-22T13:24:28;10.93;;;6.07;;
5730;SDS011;2890;51.950;7.668;2022-10-22T13:26:57;10.07;;;5.18;;
5730;SDS011;2890;51.950;7.668;2022-10-22T13:29:24;10.20;;;5.40;;
5730;SDS011;2890;51.950;7.668;2022-10-22T13:31:51;13.45;;;5.63;;
5730;SDS011;2890;51.950;7.668;2022-10-22T13:34:19;11.63;;;9.02;;
5730;SDS011;2890;51.950;7.668;2022-10-22T13:36:48;9.35;;;6.55;;
5730;SDS011;2890;51.950;7.668;2022-10-22T13:39:15;11.73;;;7.70;;
5730;SDS011;2890;51.950;7.668;2022-10-22T13:41:42;14.82;;;9.48;;
5730;SDS011;2890;51.950;7.668;2022-10-22T13:44:11;12.30;;;6.85;;
5730;SDS011;2890;51.950;7.668;2022-10-22T13:46:38;18.50;;;10.55;;
5730;SDS011;2890;51.950;7.668;2022-10-22T13:49:08;9.52;;;6.30;;
5730;SDS011;2890;51.950;7.668;2022-10-22T13:51:38;14.60;;;6.55;;
5730;SDS011;2890;51.950;7.668;2022-10-22T13:54:05;8.15;;;5.40;;
5730;SDS011;2890;51.950;7.668;2022-10-22T13:56:36;9.07;;;5.70;;
5730;SDS011;2890;51.950;7.668;2022-10-22T13:59:03;13.15;;;5.85;;
5730;SDS011;2890;51.950;7.668;2022-10-22T14:01:31;11.55;;;6.35;;
5730;SDS011;2890;51.950;7.668;2022-10-22T14:03:58;10.50;;;6.82;;
5730;SDS011;2890;51.950;7.668;2022-10-22T14:06:28;9.90;;;6.13;;
5730;SDS011;2890;51.950;7.668;2022-10-22T14:08:56;12.40;;;5.70;;
5730;SDS011;2890;51.950;7.668;2022-10-22T14:11:24;21.63;;;12.38;;
5730;SDS011;2890;51.950;7.668;2022-10-22T14:13:52;16.40;;;8.70;;
5730;SDS011;2890;51.950;7.668;2022-10-22T14:16:20;13.77;;;5.57;;
5730;SDS011;2890;51.950;7.668;2022-10-22T14:18:48;7.85;;;5.35;;
5730;SDS011;2890;51.950;7.668;2022-10-22T14:21:16;7.95;;;5.60;;
5730;SDS011;2890;51.950;7.668;2022-10-22T14:23:45;12.80;;;5.47;;
5730;SDS011;2890;51.950;7.668;2022-10-22T14:26:17;11.25;;;5.72;;
5730;SDS011;2890;51.950;7.668;2022-10-22T14:28:44;10.82;;;5.20;;
5730;SDS011;2890;51.950;7.668;2022-10-22T14:31:12;10.70;;;4.70;;
5730;SDS011;2890;51.950;7.668;2022-10-22T14:33:39;7.20;;;4.55;;
5730;SDS011;2890;51.950;7.668;2022-10-22T14:36:08;10.50;;;4.47;;
5730;SDS011;2890;51.950;7.668;2022-10-22T14:38:37;7.40;;;3.20;;
5730;SDS011;2890;51.950;7.668;2022-10-22T14:41:04;4.07;;;3.63;;
5730;SDS011;2890;51.950;7.668;2022-10-22T14:43:36;8.85;;;4.30;;
5730;SDS011;2890;51.950;7.668;2022-10-22T14:46:03;6.38;;;3.42;;
5730;SDS011;2890;51.950;7.668;2022-10-22T14:48:30;6.32;;;3.40;;
5730;SDS011;2890;51.950;7.668;2022-10-22T14:50:57;8.80;;;3.50;;
5730;SDS011;2890;51.950;7.668;2022-10-22T14:53:26;6.20;;;3.25;;
5730;SDS011;2890;51.950;7.668;2022-10-22T14:55:53;7.03;;;3.10;;
5730;SDS011;2890;51.950;7.668;2022-10-22T14:58:23;5.55;;;3.50;;
5730;SDS011;2890;51.950;7.668;2022-10-22T15:00:50;6.50;;;3.25;;
5730;SDS011;2890;51.950;7.668;2022-10-22T15:03:17;5.80;;;2.85;;
5730;SDS011;2890;51.950;7.668;2022-10-22T15:05:44;8.55;;;3.53;;
5730;SDS011;2890;51.950;7.668;2022-10-22T15:08:11;6.88;;;3.20;;
5730;SDS011;2890;51.950;7.668;2022-10-22T15:10:40;3.85;;;2.83;;
5730;SDS011;2890;51.950;7.668;2022-10-22T15:13:07;7.82;;;3.22;;
5730;SDS011;2890;51.950;7.668;2022-10-22T15:15:34;8.55;;;3.25;;
5730;SDS011;2890;51.950;7.668;2022-10-22T15:18:02;9.52;;;3.33;;
5730;SDS011;2890;51.950;7.668;2022-10-22T15:20:29;7.30;;;4.43;;
5730;SDS011;2890;51.950;7.668;2022-10-22T15:22:56;7.85;;;3.90;;
5730;SDS011;2890;51.950;7.668;2022-10-22T15:25:24;7.30;;;3.65;;
5730;SDS011;2890;51.950;7.668;2022-10-22T15:27:52;5.00;;;2.78;;